createdAt,value
2023-05-05T00:01:02.426Z,100017.58
2023-05-05T00:03:29.842Z,100019.66
2023-05-05T00:05:57.641Z,100018.08
2023-05-05T00:08:24.744Z,100015.60
2023-05-05T00:10:52.611Z,100019.61
2023-05-05T00:13:20.534Z,100020.61
2023-05-05T00:15:49.182Z,100018.63
2023-05-05T00:18:16.957Z,100015.98
2023-05-05T00:20:44.709Z,100019.94
2023-05-05T00:23:11.591Z,100016.80
2023-05-05T00:25:38.711Z,100017.87
2023-05-05T00:28:05.767Z,100015.60
2023-05-05T00:30:33.741Z,100017.15
2023-05-05T00:33:00.766Z,100013.70
2023-05-05T00:35:27.627Z,100019.77
2023-05-05T00:37:55.312Z,100019.23
2023-05-05T00:40:22.226Z,100024.59
2023-05-05T00:42:50.948Z,100028.20
2023-05-05T00:45:19.042Z,100027.93
2023-05-05T00:47:56.978Z,100028.41
2023-05-05T00:50:29.252Z,100034.14
2023-05-05T00:53:01.518Z,100032.50
2023-05-05T00:55:29.470Z,100026.01
2023-05-05T00:57:57.340Z,100023.33
2023-05-05T01:00:24.714Z,100019.98
2023-05-05T01:02:52.876Z,100020.28
2023-05-05T01:05:20.173Z,100018.34
2023-05-05T01:07:57.109Z,100020.02
2023-05-05T01:10:38.803Z,100019.73
2023-05-05T01:13:15.486Z,100019.97
2023-05-05T01:15:51.103Z,100023.80
2023-05-05T01:18:43.054Z,100024.34
2023-05-05T01:21:15.828Z,100018.77
2023-05-05T01:24:12.073Z,100021.23
2023-05-05T01:27:04.817Z,100021.27
2023-05-05T01:29:38.749Z,100015.15
2023-05-05T01:32:13.268Z,100015.16
2023-05-05T01:35:02.061Z,100015.05
2023-05-05T01:37:34.129Z,100014.41
2023-05-05T01:40:04.129Z,100019.55
2023-05-05T01:42:31.182Z,100023.14
2023-05-05T01:44:58.158Z,100021.15
2023-05-05T01:47:25.089Z,100018.73
2023-05-05T01:49:52.180Z,100020.45
2023-05-05T01:52:19.117Z,100020.66
2023-05-05T01:54:45.958Z,100026.44
2023-05-05T01:57:13.214Z,100024.75
2023-05-05T01:59:40.483Z,100026.36
2023-05-05T02:02:09.121Z,100025.30
2023-05-05T02:04:37.458Z,100027.61
2023-05-05T02:07:04.405Z,100026.39
2023-05-05T02:09:31.433Z,100029.20
2023-05-05T02:11:58.610Z,100029.86
2023-05-05T02:14:27.205Z,100027.20
2023-05-05T02:16:54.463Z,100026.32
2023-05-05T02:19:21.720Z,100024.43
2023-05-05T02:21:49.382Z,100019.63
2023-05-05T02:24:16.336Z,100017.64
2023-05-05T02:26:43.359Z,100014.46
2023-05-05T02:29:13.019Z,100016.48
2023-05-05T02:31:44.261Z,100022.02
2023-05-05T02:34:11.715Z,100020.06
2023-05-05T02:36:39.844Z,100010.23
2023-05-05T02:39:14.911Z,100017.73
2023-05-05T02:41:43.042Z,100020.90
2023-05-05T02:44:15.489Z,100020.46
2023-05-05T02:46:43.017Z,100021.73
2023-05-05T02:49:09.952Z,100023.16
2023-05-05T02:51:37.467Z,100025.98
2023-05-05T02:54:07.092Z,100025.83
2023-05-05T02:56:41.350Z,100027.23
2023-05-05T02:59:39.366Z,100029.40
2023-05-05T03:02:16.641Z,100033.54
2023-05-05T03:04:47.288Z,100035.60
2023-05-05T03:07:18.656Z,100038.80
2023-05-05T03:10:10.986Z,100037.44
2023-05-05T03:12:53.812Z,100036.80
2023-05-05T03:15:27.886Z,100041.92
2023-05-05T03:17:55.065Z,100047.56
2023-05-05T03:20:22.498Z,100046.23
2023-05-05T03:22:49.960Z,100045.91
2023-05-05T03:25:16.922Z,100048.40
2023-05-05T03:27:44.075Z,100049.44
2023-05-05T03:30:12.895Z,100049.98
2023-05-05T03:32:45.599Z,100049.00
2023-05-05T03:35:12.657Z,100046.25
2023-05-05T03:37:39.729Z,100044.69
2023-05-05T03:40:08.030Z,100037.91
2023-05-05T03:42:35.194Z,100038.44
2023-05-05T03:45:02.349Z,100036.02
2023-05-05T03:47:29.627Z,100032.86
2023-05-05T03:49:56.888Z,100031.45
2023-05-05T03:52:23.812Z,100031.13
2023-05-05T03:54:51.074Z,100034.45
2023-05-05T03:57:18.440Z,100036.22
2023-05-05T03:59:45.724Z,100039.86
2023-05-05T04:02:12.931Z,100036.08
2023-05-05T04:04:40.550Z,100046.14
2023-05-05T04:07:07.575Z,100052.14
2023-05-05T04:09:34.553Z,100059.73
2023-05-05T04:12:03.243Z,100063.73
2023-05-05T04:14:30.271Z,100061.66
2023-05-05T04:16:58.240Z,100059.80
2023-05-05T04:19:25.193Z,100059.33
2023-05-05T04:21:52.172Z,100058.48
2023-05-05T04:24:23.406Z,100054.99
2023-05-05T04:26:53.229Z,100049.45
2023-05-05T04:29:20.367Z,100051.77
2023-05-05T04:31:47.603Z,100056.16
2023-05-05T04:34:14.760Z,100058.05
2023-05-05T04:36:41.812Z,100061.71
2023-05-05T04:39:09.298Z,100061.38
2023-05-05T04:41:36.562Z,100057.21
2023-05-05T04:44:03.573Z,100061.08
2023-05-05T04:46:31.112Z,100065.39
2023-05-05T04:48:59.251Z,100066.02
2023-05-05T04:51:27.771Z,100063.54
2023-05-05T04:53:55.988Z,100062.83
2023-05-05T04:56:22.813Z,100066.67
2023-05-05T04:58:50.449Z,100069.05
2023-05-05T05:01:17.506Z,100072.70
2023-05-05T05:03:44.471Z,100072.84
2023-05-05T05:06:12.341Z,100077.48
2023-05-05T05:08:39.266Z,100079.65
2023-05-05T05:11:06.621Z,100080.41
2023-05-05T05:13:33.901Z,100085.65
2023-05-05T05:16:01.609Z,100089.54
2023-05-05T05:18:28.552Z,100092.84
2023-05-05T05:20:56.374Z,100097.18
2023-05-05T05:23:23.946Z,100103.35
2023-05-05T05:25:51.296Z,100103.56
2023-05-05T05:28:19.069Z,100104.54
2023-05-05T05:30:49.621Z,100102.47
2023-05-05T05:33:16.550Z,100101.47
2023-05-05T05:35:44.298Z,100103.63
2023-05-05T05:38:11.374Z,100102.30
2023-05-05T05:40:38.326Z,100105.27
2023-05-05T05:43:05.212Z,100096.08
2023-05-05T05:45:32.836Z,100085.11
2023-05-05T05:47:59.924Z,100088.22
2023-05-05T05:50:28.846Z,100085.82
2023-05-05T05:52:56.669Z,100086.73
2023-05-05T05:55:24.082Z,100089.17
2023-05-05T05:57:51.590Z,100089.40
2023-05-05T06:00:20.386Z,100089.75
2023-05-05T06:02:51.414Z,100089.33
2023-05-05T06:05:19.784Z,100090.23
2023-05-05T06:07:46.998Z,100090.52
2023-05-05T06:10:26.660Z,100093.90
2023-05-05T06:12:58.310Z,100092.37
2023-05-05T06:15:26.046Z,100094.09
2023-05-05T06:17:53.868Z,100095.42
2023-05-05T06:20:21.891Z,100093.80
2023-05-05T06:22:48.933Z,100097.19
2023-05-05T06:25:16.686Z,100098.04
2023-05-05T06:27:43.957Z,100098.32
2023-05-05T06:30:11.614Z,100093.70
2023-05-05T06:32:38.810Z,100085.85
2023-05-05T06:35:07.274Z,100085.30
2023-05-05T06:37:34.178Z,100082.05
2023-05-05T06:40:01.478Z,100084.06
2023-05-05T06:42:28.534Z,100089.77
2023-05-05T06:44:56.562Z,100092.85
2023-05-05T06:47:23.455Z,100091.92
2023-05-05T06:49:50.330Z,100086.14
2023-05-05T06:52:17.256Z,100082.24
2023-05-05T06:54:44.204Z,100079.84
2023-05-05T06:57:11.364Z,100074.70
2023-05-05T06:59:38.537Z,100073.28
2023-05-05T07:02:05.475Z,100075.35
2023-05-05T07:04:32.433Z,100072.38
2023-05-05T07:06:59.382Z,100073.90
2023-05-05T07:09:26.199Z,100076.96
2023-05-05T07:11:53.178Z,100072.34
2023-05-05T07:14:21.528Z,100075.17
2023-05-05T07:16:50.895Z,100077.59
2023-05-05T07:19:17.850Z,100076.18
2023-05-05T07:21:45.048Z,100074.04
2023-05-05T07:24:12.144Z,100073.34
2023-05-05T07:26:38.991Z,100075.38
2023-05-05T07:29:07.263Z,100072.42
2023-05-05T07:31:34.221Z,100076.33
2023-05-05T07:34:01.173Z,100081.19
2023-05-05T07:36:28.506Z,100079.92
2023-05-05T07:38:55.480Z,100083.65
2023-05-05T07:41:22.435Z,100085.56
2023-05-05T07:43:49.478Z,100084.48
2023-05-05T07:46:16.453Z,100084.02
2023-05-05T07:48:43.350Z,100083.57
2023-05-05T07:51:11.046Z,100083.52
2023-05-05T07:53:37.922Z,100081.73
2023-05-05T07:56:04.878Z,100079.70
2023-05-05T07:58:31.796Z,100080.45
2023-05-05T08:00:58.850Z,100084.98
2023-05-05T08:03:26.055Z,100079.31
2023-05-05T08:05:54.400Z,100078.70
2023-05-05T08:08:25.073Z,100080.14
2023-05-05T08:10:53.295Z,100086.84
2023-05-05T08:13:20.603Z,100087.14
2023-05-05T08:15:47.869Z,100089.07
2023-05-05T08:18:14.928Z,100085.68
2023-05-05T08:20:41.975Z,100084.20
2023-05-05T08:23:08.907Z,100081.90
2023-05-05T08:25:36.274Z,100082.75
2023-05-05T08:28:03.316Z,100080.39
2023-05-05T08:30:30.272Z,100077.13
2023-05-05T08:32:57.528Z,100080.36
2023-05-05T08:35:24.904Z,100078.25
2023-05-05T08:40:43.335Z,100072.21
2023-05-05T08:43:10.292Z,100074.16
2023-05-05T08:45:37.236Z,100071.55
2023-05-05T08:48:05.057Z,100071.10
2023-05-05T08:50:32.185Z,100073.44
2023-05-05T08:53:16.266Z,100072.19
2023-05-05T08:55:51.560Z,100067.63
2023-05-05T08:58:19.164Z,100071.19
2023-05-05T09:00:46.711Z,100072.20
2023-05-05T09:03:13.856Z,100073.23
2023-05-05T09:05:41.908Z,100070.84
2023-05-05T09:08:11.769Z,100068.57
2023-05-05T09:10:42.196Z,100065.42
2023-05-05T09:13:09.112Z,100070.96
2023-05-05T09:15:36.939Z,100072.64
2023-05-05T09:18:06.328Z,100076.52
2023-05-05T09:20:37.425Z,100073.65
2023-05-05T09:23:12.183Z,100071.70
2023-05-05T09:25:39.935Z,100073.34
2023-05-05T09:28:17.400Z,100077.30
2023-05-05T09:30:45.809Z,100075.81
2023-05-05T09:33:13.174Z,100066.77
2023-05-05T09:35:49.381Z,100062.63
2023-05-05T09:38:16.358Z,100062.80
2023-05-05T09:40:47.920Z,100056.52
2023-05-05T09:43:15.961Z,100053.70
2023-05-05T09:45:43.384Z,100056.42
2023-05-05T09:48:26.666Z,100057.79
2023-05-05T09:50:54.163Z,100055.77
2023-05-05T09:53:21.220Z,100055.83
2023-05-05T09:55:56.290Z,100056.61
2023-05-05T09:58:27.561Z,100052.98
2023-05-05T10:00:57.937Z,100051.96
2023-05-05T10:03:25.601Z,100049.02
2023-05-05T10:05:54.186Z,100046.53
2023-05-05T10:08:27.896Z,100046.42
2023-05-05T10:10:59.766Z,100049.02
2023-05-05T10:13:27.322Z,100045.02
2023-05-05T10:15:55.848Z,100046.32
2023-05-05T10:18:28.560Z,100046.59
2023-05-05T10:20:59.327Z,100043.55
2023-05-05T10:23:50.544Z,100039.00
2023-05-05T10:26:17.592Z,100033.69
2023-05-05T10:28:45.762Z,100034.21
2023-05-05T10:31:26.499Z,100036.18
2023-05-05T10:33:57.734Z,100031.13
2023-05-05T10:36:25.002Z,100030.98
2023-05-05T10:38:55.091Z,100028.42
2023-05-05T10:41:22.730Z,100033.36
2023-05-05T10:43:49.787Z,100025.27
2023-05-05T10:46:16.795Z,100026.09
2023-05-05T10:49:16.774Z,100024.59
2023-05-05T10:51:49.124Z,100017.53
2023-05-05T10:54:25.116Z,100019.25
2023-05-05T10:56:52.025Z,100008.30
2023-05-05T10:59:37.770Z,100009.98
2023-05-05T11:02:31.897Z,100011.27
2023-05-05T11:05:18.357Z,100010.96
2023-05-05T11:07:46.547Z,100008.91
2023-05-05T11:10:14.688Z,100009.83
2023-05-05T11:12:54.383Z,100006.62
2023-05-05T11:15:27.554Z,100004.86
2023-05-05T11:17:57.921Z,100002.34
2023-05-05T11:20:37.373Z,99997.48
2023-05-05T11:23:04.387Z,100000.44
2023-05-05T11:25:35.564Z,99998.67
2023-05-05T11:28:19.055Z,99996.95
2023-05-05T11:30:55.298Z,99996.27
2023-05-05T11:33:26.585Z,100000.67
2023-05-05T11:36:01.838Z,99998.23
2023-05-05T11:38:36.647Z,100000.50
2023-05-05T11:41:11.681Z,99995.14
2023-05-05T11:43:39.100Z,99995.71
2023-05-05T11:46:13.134Z,99996.46
2023-05-05T11:48:49.928Z,99993.48
2023-05-05T11:51:17.533Z,99992.01
2023-05-05T11:53:45.163Z,99986.62
2023-05-05T11:56:12.932Z,99984.57
2023-05-05T11:58:40.114Z,99984.66
2023-05-05T12:01:07.684Z,99978.88
2023-05-05T12:03:36.412Z,99977.98
2023-05-05T12:06:07.414Z,99973.09
2023-05-05T12:08:41.354Z,99970.13
2023-05-05T12:11:09.477Z,99971.45
2023-05-05T12:13:36.370Z,99965.46
2023-05-05T12:16:13.415Z,99961.98
2023-05-05T12:18:40.766Z,99959.29
2023-05-05T12:21:17.546Z,99962.54
2023-05-05T12:23:44.837Z,99959.30
2023-05-05T12:26:25.390Z,99953.48
2023-05-05T12:28:52.314Z,99952.55
2023-05-05T12:31:19.255Z,99953.87
2023-05-05T12:33:46.630Z,99950.43
2023-05-05T12:36:13.442Z,99946.77
2023-05-05T12:38:40.529Z,99947.63
2023-05-05T12:41:07.597Z,99944.98
2023-05-05T12:43:35.396Z,99942.98
2023-05-05T12:46:10.731Z,99940.94
2023-05-05T12:48:38.789Z,99936.42
2023-05-05T12:51:19.897Z,99934.72
2023-05-05T12:53:47.948Z,99934.94
2023-05-05T12:56:43.845Z,99930.95
2023-05-05T12:59:11.303Z,99938.60
2023-05-05T13:01:51.199Z,99939.39
2023-05-05T13:04:18.836Z,99936.27
2023-05-05T13:06:47.143Z,99932.75
2023-05-05T13:09:24.198Z,99934.27
2023-05-05T13:11:51.340Z,99933.39
2023-05-05T13:14:18.400Z,99934.09
2023-05-05T13:16:45.557Z,99936.59
2023-05-05T13:19:12.611Z,99928.35
2023-05-05T13:21:39.652Z,99932.11
2023-05-05T13:24:20.800Z,99933.54
2023-05-05T13:26:50.892Z,99926.84
2023-05-05T13:29:18.228Z,99930.11
2023-05-05T13:31:45.501Z,99930.30
2023-05-05T13:34:12.626Z,99930.83
2023-05-05T13:36:39.690Z,99930.92
2023-05-05T13:39:07.154Z,99927.28
2023-05-05T13:41:34.144Z,99926.12
2023-05-05T13:44:01.059Z,99925.12
2023-05-05T13:46:28.060Z,99922.91
2023-05-05T13:48:56.862Z,99921.92
2023-05-05T13:51:23.972Z,99921.84
2023-05-05T13:53:51.263Z,99920.50
2023-05-05T13:56:19.279Z,99922.05
2023-05-05T13:58:46.640Z,99921.63
2023-05-05T14:01:13.593Z,99919.84
2023-05-05T14:03:40.719Z,99915.14
2023-05-05T14:06:09.338Z,99912.45
2023-05-05T14:08:36.698Z,99918.48
2023-05-05T14:11:03.962Z,99913.66
2023-05-05T14:13:31.324Z,99912.30
2023-05-05T14:15:58.588Z,99909.05
2023-05-05T14:18:26.152Z,99907.80
2023-05-05T14:20:53.164Z,99904.86
2023-05-05T14:23:20.154Z,99907.85
2023-05-05T14:25:47.208Z,99904.08
2023-05-05T14:28:14.070Z,99906.23
2023-05-05T14:30:40.939Z,99901.98
2023-05-05T14:33:07.950Z,99896.59
2023-05-05T14:35:35.064Z,99899.51
2023-05-05T14:38:01.970Z,99899.71
2023-05-05T14:40:30.435Z,99898.88
2023-05-05T14:42:57.942Z,99896.04
2023-05-05T14:45:24.856Z,99893.67
2023-05-05T14:51:08.196Z,99890.19
2023-05-05T14:53:35.150Z,99894.27
2023-05-05T14:56:02.638Z,99891.29
2023-05-05T14:58:55.247Z,99891.54
2023-05-05T15:01:22.433Z,99895.56
2023-05-05T15:03:49.438Z,99894.96
2023-05-05T15:06:16.630Z,99895.17
2023-05-05T15:08:43.517Z,99896.84
2023-05-05T15:11:10.506Z,99895.16
2023-05-05T15:13:40.323Z,99898.10
2023-05-05T15:16:08.216Z,99895.73
2023-05-05T15:18:35.063Z,99898.76
2023-05-05T15:21:01.996Z,99894.92
2023-05-05T15:23:28.801Z,99896.02
2023-05-05T15:25:55.718Z,99895.55
2023-05-05T15:28:22.567Z,99895.64
2023-05-05T15:30:49.379Z,99897.80
2023-05-05T15:33:17.080Z,99895.58
2023-05-05T15:35:44.216Z,99894.73
2023-05-05T15:38:11.161Z,99895.98
2023-05-05T15:40:37.940Z,99899.26
2023-05-05T15:43:04.760Z,99897.90
2023-05-05T15:45:32.228Z,99899.59
2023-05-05T15:47:59.184Z,99901.68
2023-05-05T15:50:26.086Z,99903.46
2023-05-05T15:52:57.043Z,99898.40
2023-05-05T15:55:24.247Z,99900.45
2023-05-05T15:57:51.486Z,99901.70
2023-05-05T16:00:18.538Z,99903.75
2023-05-05T16:02:45.686Z,99900.77
2023-05-05T16:05:12.986Z,99901.64
2023-05-05T16:07:39.823Z,99905.97
2023-05-05T16:10:08.394Z,99902.56
2023-05-05T16:12:35.231Z,99907.21
2023-05-05T16:15:02.154Z,99908.60
2023-05-05T16:17:29.033Z,99906.39
2023-05-05T16:19:56.094Z,99907.59
2023-05-05T16:22:23.041Z,99909.23
2023-05-05T16:24:49.995Z,99910.58
2023-05-05T16:27:16.885Z,99912.63
2023-05-05T16:29:43.927Z,99919.79
2023-05-05T16:32:11.192Z,99911.91
2023-05-05T16:34:38.085Z,99914.49
2023-05-05T16:37:05.056Z,99914.39
2023-05-05T16:39:33.155Z,99918.26
2023-05-05T16:42:00.194Z,99918.62
2023-05-05T16:44:27.241Z,99920.30
2023-05-05T16:46:54.190Z,99919.39
2023-05-05T16:49:21.248Z,99925.20
2023-05-05T16:51:48.217Z,99922.48
2023-05-05T16:54:15.078Z,99927.45
2023-05-05T16:56:41.878Z,99930.66
2023-05-05T16:59:08.856Z,99930.27
2023-05-05T17:01:35.733Z,99935.40
2023-05-05T17:04:02.860Z,99934.60
2023-05-05T17:06:33.129Z,99938.02
2023-05-05T17:09:00.135Z,99937.52
2023-05-05T17:11:27.083Z,99943.05
2023-05-05T17:13:54.041Z,99940.13
2023-05-05T17:16:20.928Z,99944.08
2023-05-05T17:18:47.936Z,99944.13
2023-05-05T17:21:15.096Z,99945.24
2023-05-05T17:23:42.057Z,99950.91
2023-05-05T17:26:08.952Z,99953.79
2023-05-05T17:28:35.770Z,99956.30
2023-05-05T17:31:02.859Z,99956.49
2023-05-05T17:33:29.664Z,99954.27
2023-05-05T17:35:56.596Z,99956.13
2023-05-05T17:38:23.442Z,99958.73
2023-05-05T17:40:50.393Z,99962.05
2023-05-05T17:43:17.348Z,99960.96
2023-05-05T17:45:44.316Z,99961.52
2023-05-05T17:48:11.248Z,99964.89
2023-05-05T17:50:38.116Z,99969.41
2023-05-05T17:53:05.162Z,99968.69
2023-05-05T17:55:32.105Z,99969.55
2023-05-05T17:57:59.156Z,99970.96
2023-05-05T18:00:26.621Z,99974.61
2023-05-05T18:02:53.574Z,99973.36
2023-05-05T18:05:21.043Z,99972.95
2023-05-05T18:07:47.863Z,99974.37
2023-05-05T18:10:14.733Z,99975.02
2023-05-05T18:12:41.872Z,99978.73
2023-05-05T18:15:09.804Z,99985.72
2023-05-05T18:17:37.642Z,99989.82
2023-05-05T18:20:07.090Z,99989.36
2023-05-05T18:22:34.503Z,99992.58
2023-05-05T18:25:01.560Z,99991.44
2023-05-05T18:27:28.643Z,99990.89
2023-05-05T18:29:55.752Z,99994.84
2023-05-05T18:32:23.415Z,99994.85
2023-05-05T18:34:50.490Z,99995.92
2023-05-05T18:37:17.309Z,99994.92
2023-05-05T18:39:45.250Z,99999.66
2023-05-05T18:42:13.148Z,100000.55
2023-05-05T18:44:40.163Z,100000.27
2023-05-05T18:47:07.976Z,100001.79
2023-05-05T18:49:35.433Z,99998.23
2023-05-05T18:52:02.384Z,99998.27
2023-05-05T18:54:29.260Z,99997.30
2023-05-05T18:56:56.127Z,99997.63
2023-05-05T18:59:23.073Z,99997.05
2023-05-05T19:01:49.981Z,99996.98
2023-05-05T19:04:30.194Z,99999.89
2023-05-05T19:06:59.183Z,99995.95
2023-05-05T19:09:26.182Z,99996.56
2023-05-05T19:11:53.082Z,99998.44
2023-05-05T19:14:19.944Z,99996.86
2023-05-05T19:16:46.907Z,99999.55
2023-05-05T19:19:13.932Z,99998.45
2023-05-05T19:21:40.924Z,100005.89
2023-05-05T19:24:11.945Z,100004.63
2023-05-05T19:26:38.807Z,100005.42
2023-05-05T19:29:05.935Z,100012.36
2023-05-05T19:31:32.897Z,100009.40
2023-05-05T19:34:01.595Z,100011.29
2023-05-05T19:36:30.062Z,100013.35
2023-05-05T19:38:56.911Z,100011.24
2023-05-05T19:41:23.861Z,100015.84
2023-05-05T19:43:50.920Z,100016.11
2023-05-05T19:46:17.905Z,100018.66
2023-05-05T19:48:46.296Z,100015.04
2023-05-05T19:51:13.404Z,100016.77
2023-05-05T19:53:42.415Z,100016.27
2023-05-05T19:56:10.072Z,100016.59
2023-05-05T19:59:00.485Z,100015.39
2023-05-05T20:01:28.594Z,100015.20
2023-05-05T20:03:56.243Z,100018.25
2023-05-05T20:06:23.409Z,100019.89
2023-05-05T20:08:50.258Z,100026.64
2023-05-05T20:11:17.154Z,100028.36
2023-05-05T20:13:44.104Z,100028.00
2023-05-05T20:16:11.899Z,100031.23
2023-05-05T20:18:39.028Z,100032.02
2023-05-05T20:21:06.182Z,100030.02
2023-05-05T20:23:33.866Z,100031.54
2023-05-05T20:26:00.833Z,100034.20
2023-05-05T20:28:27.864Z,100034.75
2023-05-05T20:30:54.732Z,100036.05
2023-05-05T20:33:21.595Z,100041.88
2023-05-05T20:35:48.513Z,100042.46
2023-05-05T20:38:15.347Z,100038.82
2023-05-05T20:40:42.323Z,100039.59
2023-05-05T20:43:09.262Z,100036.27
2023-05-05T20:45:37.388Z,100039.05
2023-05-05T20:48:05.595Z,100040.27
2023-05-05T20:50:32.980Z,100043.79
2023-05-05T20:53:00.127Z,100055.17
2023-05-05T20:55:27.005Z,100065.66
2023-05-05T20:57:54.310Z,100075.08
2023-05-05T21:00:21.565Z,100067.27
2023-05-05T21:02:48.606Z,100073.73
2023-05-05T21:05:15.678Z,100079.85
2023-05-05T21:07:42.516Z,100083.37
2023-05-05T21:10:10.180Z,100080.88
2023-05-05T21:12:37.411Z,100085.39
2023-05-05T21:15:04.977Z,100088.02
2023-05-05T21:17:31.929Z,100090.63
2023-05-05T21:19:58.963Z,100094.50
2023-05-05T21:22:26.030Z,100094.60
2023-05-05T21:24:54.597Z,100096.42
2023-05-05T21:27:21.642Z,100093.77
2023-05-05T21:29:50.861Z,100101.91
2023-05-05T21:32:17.829Z,100099.86
2023-05-05T21:34:44.959Z,100095.45
2023-05-05T21:37:12.235Z,100101.61
2023-05-05T21:39:39.278Z,100104.93
2023-05-05T21:42:06.228Z,100103.73
2023-05-05T21:44:33.069Z,100101.92
2023-05-05T21:47:00.024Z,100103.97
2023-05-05T21:49:26.848Z,100102.10
2023-05-05T21:51:53.818Z,100101.95
2023-05-05T21:54:20.625Z,100100.04
2023-05-05T21:56:47.518Z,100102.02
2023-05-05T21:59:16.516Z,100105.52
2023-05-05T22:01:44.139Z,100109.95
2023-05-05T22:04:11.049Z,100102.23
2023-05-05T22:06:37.883Z,100106.49
2023-05-05T22:09:04.700Z,100109.00
2023-05-05T22:11:31.543Z,100105.23
2023-05-05T22:13:58.432Z,100115.68
2023-05-05T22:16:25.530Z,100112.45
2023-05-05T22:18:52.642Z,100111.20
2023-05-05T22:21:21.233Z,100115.45
2023-05-05T22:23:48.153Z,100115.02
2023-05-05T22:26:15.045Z,100111.63
2023-05-05T22:28:41.973Z,100110.88
2023-05-05T22:31:08.999Z,100111.28
2023-05-05T22:33:36.299Z,100107.80
2023-05-05T22:36:03.217Z,100113.38
2023-05-05T22:38:30.190Z,100116.35
2023-05-05T22:40:57.109Z,100114.95
2023-05-05T22:43:23.991Z,100118.14
2023-05-05T22:45:51.289Z,100120.52
2023-05-05T22:48:18.208Z,100121.43
2023-05-05T22:50:45.784Z,100123.11
2023-05-05T22:53:12.723Z,100120.96
2023-05-05T22:55:39.675Z,100117.05
2023-05-05T22:58:06.553Z,100114.14
2023-05-05T23:00:33.472Z,100116.81
2023-05-05T23:03:00.796Z,100117.05
2023-05-05T23:05:27.887Z,100114.35
2023-05-05T23:07:54.840Z,100116.42
2023-05-05T23:10:21.799Z,100117.73
2023-05-05T23:12:48.661Z,100119.30
2023-05-05T23:15:15.902Z,100114.46
2023-05-05T23:17:42.765Z,100118.73
2023-05-05T23:20:12.161Z,100118.31
2023-05-05T23:22:39.028Z,100121.16
2023-05-05T23:25:06.653Z,100121.93
2023-05-05T23:27:33.543Z,100126.71
2023-05-05T23:30:00.655Z,100126.17
2023-05-05T23:32:27.652Z,100123.04
2023-05-05T23:34:54.473Z,100125.12
2023-05-05T23:37:21.434Z,100123.20
2023-05-05T23:39:48.264Z,100126.50
2023-05-05T23:42:15.221Z,100128.58
2023-05-05T23:44:42.180Z,100129.27
2023-05-05T23:47:09.128Z,100122.83
2023-05-05T23:49:36.693Z,100122.16
2023-05-05T23:52:03.645Z,100121.45
2023-05-05T23:54:30.696Z,100122.67
2023-05-05T23:56:58.902Z,100115.87
2023-05-05T23:59:26.341Z,100116.42
